createdAt,value
2022-08-25T07:41:38.021Z,61.12
2022-08-25T07:42:36.072Z,64.91
2022-08-25T07:43:34.293Z,66.93
2022-08-25T07:44:32.704Z,67.61
2022-08-25T07:45:32.190Z,68.43
2022-08-25T07:46:28.865Z,68.64
2022-08-25T07:47:25.540Z,68.75
2022-08-25T07:48:22.189Z,69.15
2022-08-25T07:49:23.232Z,68.71
2022-08-25T07:50:20.665Z,69.10
2022-08-25T07:51:17.545Z,68.10
2022-08-25T07:52:15.025Z,68.54
2022-08-25T07:53:13.358Z,68.08
2022-08-25T07:54:11.300Z,68.18
2022-08-25T07:55:11.150Z,67.38
2022-08-25T07:56:13.627Z,67.93
2022-08-25T07:57:10.248Z,68.48
2022-08-25T07:58:08.470Z,68.42
2022-08-25T07:59:05.308Z,68.48
2022-08-25T08:00:02.009Z,68.62
2022-08-25T08:01:00.702Z,67.69
2022-08-25T08:01:57.481Z,66.92
2022-08-25T08:02:54.257Z,66.61
2022-08-25T08:03:51.695Z,66.91
2022-08-25T08:04:50.114Z,66.04
2022-08-25T08:05:47.495Z,66.71
2022-08-25T08:06:45.979Z,67.00
2022-08-25T08:07:43.755Z,67.10
2022-08-25T08:08:45.622Z,67.51
2022-08-25T08:09:42.459Z,67.84
2022-08-25T08:11:03.198Z,67.09
2022-08-25T08:11:57.771Z,65.50
2022-08-25T08:12:54.582Z,64.87
2022-08-25T08:13:52.184Z,63.68
2022-08-25T08:14:49.405Z,65.22
2022-08-25T08:15:46.782Z,64.64
2022-08-25T08:16:43.678Z,64.68
2022-08-25T08:17:40.647Z,64.07
2022-08-25T08:18:37.416Z,63.41
2022-08-25T08:19:36.419Z,64.83
2022-08-25T08:20:43.175Z,65.62
2022-08-25T08:21:40.027Z,65.43
2022-08-25T08:22:38.219Z,65.45
2022-08-25T08:23:35.808Z,65.04
2022-08-25T08:24:44.755Z,65.36
2022-08-25T08:25:51.155Z,65.42
2022-08-25T08:26:58.696Z,63.96
2022-08-25T08:27:56.760Z,63.76
2022-08-25T08:28:53.584Z,63.46
2022-08-25T08:29:53.718Z,64.38
2022-08-25T08:30:53.121Z,64.82
2022-08-25T08:31:50.554Z,64.41
2022-08-25T08:33:08.706Z,64.67
2022-08-25T08:34:06.535Z,63.74
2022-08-25T08:35:05.791Z,63.36
2022-08-25T08:36:12.396Z,63.30
2022-08-25T08:37:10.403Z,64.81
2022-08-25T08:38:14.569Z,65.45
2022-08-25T08:39:11.777Z,65.23
2022-08-25T08:40:09.762Z,63.66
2022-08-25T08:42:07.298Z,63.07
2022-08-25T08:43:18.501Z,62.58
2022-08-25T08:44:18.971Z,62.56
2022-08-25T08:45:43.960Z,61.97
2022-08-25T08:47:03.020Z,60.42
2022-08-25T08:48:02.509Z,60.03
2022-08-25T08:49:05.742Z,60.38
2022-08-25T08:50:33.013Z,60.60
2022-08-25T08:51:40.105Z,56.31
2022-08-25T08:52:50.081Z,58.38
2022-08-25T08:54:15.419Z,58.08
2022-08-25T08:55:28.023Z,56.72
2022-08-25T08:56:31.100Z,57.56
2022-08-25T08:57:29.860Z,56.45
2022-08-25T08:58:37.800Z,56.82
2022-08-25T08:59:49.193Z,57.43
2022-08-25T09:01:03.775Z,56.76
2022-08-25T09:02:04.083Z,55.12
2022-08-25T09:03:33.238Z,53.80
2022-08-25T09:04:36.483Z,52.08
2022-08-25T09:05:46.835Z,53.58
2022-08-25T09:06:49.610Z,52.46
2022-08-25T09:07:56.170Z,53.31
2022-08-25T09:08:55.649Z,53.33
2022-08-25T09:09:56.603Z,52.40
2022-08-25T09:11:36.669Z,45.23
2022-08-25T09:13:11.349Z,45.37
2022-08-25T09:14:14.607Z,45.71
2022-08-25T09:16:01.713Z,47.26
2022-08-25T09:17:07.134Z,42.64
2022-08-25T09:18:16.439Z,44.17
2022-08-25T09:19:32.203Z,43.43
2022-08-25T09:20:40.828Z,44.54
2022-08-25T09:21:45.774Z,43.89
2022-08-25T09:22:43.942Z,43.04
2022-08-25T09:24:04.888Z,44.66
2022-08-25T09:25:16.350Z,43.87
2022-08-25T09:26:28.611Z,45.39
2022-08-25T09:27:40.463Z,44.77
2022-08-25T09:28:37.115Z,42.68
2022-08-25T09:30:11.899Z,43.09
2022-08-25T09:31:20.367Z,43.10
2022-08-25T09:32:24.146Z,42.06
2022-08-25T09:33:25.358Z,42.88
2022-08-25T09:34:28.592Z,42.96
2022-08-25T09:35:28.493Z,42.50
2022-08-25T09:36:25.718Z,42.39
2022-08-25T09:37:24.181Z,43.54
2022-08-25T09:38:21.985Z,45.27
2022-08-25T09:39:19.916Z,43.46
2022-08-25T09:40:16.622Z,44.72
2022-08-25T09:41:17.607Z,43.57
2022-08-25T09:42:23.927Z,42.89
2022-08-25T09:43:43.622Z,42.74
2022-08-25T09:44:43.887Z,43.72
2022-08-25T09:45:47.560Z,42.43
2022-08-25T09:47:14.826Z,44.24
2022-08-25T09:48:22.510Z,45.01
2022-08-25T09:49:19.403Z,45.23
2022-08-25T09:50:20.149Z,43.52
2022-08-25T09:51:16.780Z,42.23
2022-08-25T09:52:38.200Z,43.23
2022-08-25T09:53:48.161Z,41.56
2022-08-25T09:54:46.866Z,41.90
2022-08-25T09:55:47.443Z,41.52
2022-08-25T09:56:51.439Z,41.35
2022-08-25T09:57:52.983Z,40.39
2022-08-25T09:58:50.245Z,40.78
2022-08-25T09:59:57.702Z,40.91
2022-08-25T10:01:06.570Z,42.50
2022-08-25T10:02:24.132Z,43.50
2022-08-25T10:03:24.603Z,41.58
2022-08-25T10:04:48.356Z,42.67
2022-08-25T10:06:01.504Z,42.89
2022-08-25T10:07:00.606Z,41.65
2022-08-25T10:08:03.428Z,41.58
2022-08-25T10:09:06.754Z,42.07
2022-08-25T10:10:18.385Z,44.61
2022-08-25T10:11:34.312Z,44.67
2022-08-25T10:12:42.519Z,44.42
2022-08-25T10:13:41.868Z,45.14
2022-08-25T10:14:44.582Z,45.31
2022-08-25T10:15:41.507Z,45.63
2022-08-25T10:16:38.483Z,45.36
2022-08-25T10:17:35.510Z,45.11
2022-08-25T10:18:33.722Z,45.72
2022-08-25T10:19:30.617Z,45.50
2022-08-25T10:20:28.653Z,45.70
2022-08-25T10:21:32.651Z,47.28
2022-08-25T10:22:32.667Z,46.59
2022-08-25T10:23:30.649Z,45.34
2022-08-25T10:24:27.500Z,45.73
2022-08-25T10:25:33.021Z,45.87
2022-08-25T10:26:55.390Z,47.56
2022-08-25T10:28:16.012Z,47.80
2022-08-25T10:29:30.988Z,47.80
2022-08-25T10:30:38.201Z,48.36
2022-08-25T10:31:44.746Z,48.38
2022-08-25T10:32:59.602Z,48.00
2022-08-25T10:34:20.054Z,47.47
2022-08-25T10:35:27.718Z,47.80
2022-08-25T10:36:36.402Z,47.47
2022-08-25T10:37:57.919Z,46.29
2022-08-25T10:39:01.620Z,47.13
2022-08-25T10:40:36.512Z,47.00
2022-08-25T10:42:02.128Z,44.85
2022-08-25T10:43:08.573Z,46.46
2022-08-25T10:44:37.071Z,44.85
2022-08-25T10:46:02.323Z,45.46
2022-08-25T10:47:29.685Z,46.99
2022-08-25T10:49:00.550Z,46.37
2022-08-25T10:50:40.833Z,45.06
2022-08-25T10:52:01.419Z,45.83
2022-08-25T10:53:33.625Z,46.28
2022-08-25T10:54:43.031Z,46.73
2022-08-25T10:55:55.131Z,45.28
2022-08-25T10:57:00.938Z,45.60
2022-08-25T10:58:09.924Z,46.53
2022-08-25T10:59:13.010Z,47.08
2022-08-25T11:00:14.047Z,47.40
2022-08-25T11:01:43.668Z,46.06
2022-08-25T11:03:26.696Z,46.06
2022-08-25T11:04:30.682Z,46.02
2022-08-25T11:05:51.893Z,46.26
2022-08-25T11:06:55.457Z,45.99
2022-08-25T11:08:11.553Z,46.43
2022-08-25T11:09:13.137Z,46.55
2022-08-25T11:10:20.224Z,43.93
2022-08-25T11:11:25.854Z,46.47
2022-08-25T11:12:35.807Z,45.94
2022-08-25T11:13:45.919Z,44.87
2022-08-25T11:14:57.150Z,44.74
2022-08-25T11:16:16.570Z,44.90
2022-08-25T11:17:25.563Z,45.92
2022-08-25T11:18:25.109Z,45.54
2022-08-25T11:19:36.388Z,44.45
2022-08-25T11:21:01.335Z,44.67
2022-08-25T11:22:04.636Z,42.17
2022-08-25T11:23:24.365Z,42.57
2022-08-25T11:24:20.971Z,43.64
2022-08-25T11:25:20.024Z,42.77
2022-08-25T11:26:31.850Z,43.55
2022-08-25T11:27:50.669Z,44.58
2022-08-25T11:29:03.690Z,43.50
2022-08-25T11:30:10.622Z,43.76
2022-08-25T11:31:09.982Z,42.34
2022-08-25T11:32:07.075Z,42.94
2022-08-25T11:33:05.015Z,43.76
2022-08-25T11:34:10.815Z,43.20
2022-08-25T11:35:12.108Z,44.80
2022-08-25T11:36:15.300Z,44.56
2022-08-25T11:37:27.927Z,44.89
2022-08-25T11:38:39.834Z,44.13
2022-08-25T11:39:59.208Z,45.11
2022-08-25T11:40:58.905Z,42.73
2022-08-25T11:42:19.849Z,42.00
2022-08-25T11:43:44.389Z,42.26
2022-08-25T11:45:08.785Z,41.82
2022-08-25T11:46:17.596Z,43.07
2022-08-25T11:47:50.268Z,43.14
2022-08-25T11:49:21.692Z,42.86
2022-08-25T11:50:32.834Z,43.20
2022-08-25T11:51:42.214Z,43.27
2022-08-25T11:52:49.179Z,43.39
2022-08-25T11:53:48.468Z,43.46
2022-08-25T11:54:48.421Z,43.74
2022-08-25T11:55:49.896Z,44.58
2022-08-25T11:57:05.342Z,44.33
2022-08-25T11:58:39.103Z,43.76
2022-08-25T11:59:52.516Z,43.42
2022-08-25T12:00:50.440Z,43.61
2022-08-25T12:01:47.416Z,43.70
2022-08-25T12:02:47.436Z,44.39
2022-08-25T12:03:44.191Z,43.60
2022-08-25T12:04:44.164Z,44.08
2022-08-25T12:06:13.160Z,42.54
2022-08-25T12:07:10.666Z,42.95
2022-08-25T12:08:26.398Z,43.26
2022-08-25T12:09:23.228Z,42.06
2022-08-25T12:10:23.794Z,40.78
2022-08-25T12:11:41.782Z,41.30
2022-08-25T12:12:56.268Z,38.86
2022-08-25T12:13:53.291Z,40.71
2022-08-25T12:14:51.755Z,40.77
2022-08-25T12:15:48.412Z,39.36
2022-08-25T12:16:52.206Z,39.55
2022-08-25T12:18:12.759Z,41.38
2022-08-25T12:19:24.104Z,40.12
2022-08-25T12:20:58.471Z,38.36
2022-08-25T12:21:59.083Z,38.94
2022-08-25T12:22:57.616Z,40.52
2022-08-25T12:24:09.574Z,39.01
2022-08-25T12:25:24.483Z,40.75
2022-08-25T12:26:30.315Z,38.22
2022-08-25T12:27:52.880Z,39.99
2022-08-25T12:29:08.214Z,40.45
2022-08-25T12:30:45.777Z,40.42
2022-08-25T12:32:04.674Z,39.99
2022-08-25T12:33:03.215Z,40.68
2022-08-25T12:34:24.257Z,40.38
2022-08-25T12:35:50.075Z,40.49
2022-08-25T12:37:06.167Z,39.95
2022-08-25T12:38:08.997Z,40.10
2022-08-25T12:39:18.298Z,40.50
2022-08-25T12:40:26.784Z,40.69
2022-08-25T12:41:30.868Z,39.79
2022-08-25T12:42:46.100Z,39.80
2022-08-25T12:43:48.509Z,39.76
2022-08-25T12:44:48.010Z,40.03
2022-08-25T12:45:51.994Z,37.66
2022-08-25T12:47:27.248Z,38.37
2022-08-25T12:48:26.606Z,38.86
2022-08-25T12:49:32.351Z,38.75
2022-08-25T12:50:48.221Z,39.15
2022-08-25T12:51:59.232Z,40.70
2022-08-25T12:53:07.381Z,41.55
2022-08-25T12:54:48.475Z,42.31
2022-08-25T12:55:51.752Z,42.84
2022-08-25T12:56:55.298Z,43.56
2022-08-25T12:57:58.791Z,44.17
2022-08-25T12:59:12.843Z,43.05
2022-08-25T13:00:22.411Z,41.27
2022-08-25T13:01:35.222Z,39.71
2022-08-25T13:02:54.247Z,40.88
2022-08-25T13:04:15.104Z,40.34
2022-08-25T13:05:25.631Z,40.59
2022-08-25T13:06:29.647Z,39.61
2022-08-25T13:07:47.847Z,41.83
2022-08-25T13:09:18.356Z,41.28
2022-08-25T13:10:47.293Z,42.24
2022-08-25T13:11:54.954Z,42.51
2022-08-25T13:13:19.106Z,42.41
2022-08-25T13:14:22.762Z,42.75
2022-08-25T13:15:46.995Z,42.14
2022-08-25T13:16:57.546Z,44.15
2022-08-25T13:17:54.264Z,43.55
2022-08-25T13:18:51.674Z,44.05
2022-08-25T13:19:48.474Z,43.88
2022-08-25T13:20:47.215Z,44.22
2022-08-25T13:21:44.886Z,43.20
2022-08-25T13:22:45.080Z,44.25
2022-08-25T13:23:44.591Z,43.76
2022-08-25T13:24:43.775Z,43.73
2022-08-25T13:25:51.933Z,43.32
2022-08-25T13:26:52.693Z,43.40
2022-08-25T13:27:56.223Z,44.22
2022-08-25T13:29:17.834Z,44.27
2022-08-25T13:30:33.881Z,43.96
2022-08-25T13:31:31.102Z,44.91
2022-08-25T13:32:36.624Z,43.90
2022-08-25T13:33:34.635Z,43.88
2022-08-25T13:34:37.602Z,44.55
2022-08-25T13:35:39.306Z,44.31
2022-08-25T13:37:02.548Z,44.71
2022-08-25T13:38:19.604Z,44.85
2022-08-25T13:39:28.745Z,44.53
2022-08-25T13:40:36.626Z,46.34
2022-08-25T13:41:34.463Z,45.01
2022-08-25T13:42:31.870Z,45.08
2022-08-25T13:43:28.995Z,46.03
2022-08-25T13:44:28.240Z,44.63
2022-08-25T13:45:34.790Z,44.77
2022-08-25T13:46:38.412Z,45.25
2022-08-25T13:47:43.716Z,44.21
2022-08-25T13:48:49.471Z,44.76
2022-08-25T13:49:47.883Z,45.35
2022-08-25T13:50:50.155Z,44.88
2022-08-25T13:51:54.751Z,43.96
2022-08-25T13:52:55.783Z,43.99
2022-08-25T13:54:06.102Z,44.49
2022-08-25T13:55:04.767Z,44.36
2022-08-25T13:56:03.527Z,44.05
2022-08-25T13:57:07.600Z,44.46
2022-08-25T13:58:07.245Z,44.28
2022-08-25T13:59:29.795Z,44.81
2022-08-25T14:00:34.959Z,44.94
2022-08-25T14:01:49.231Z,44.74
2022-08-25T14:02:50.102Z,44.80
2022-08-25T14:03:47.768Z,45.28
2022-08-25T14:04:51.294Z,44.81
2022-08-25T14:06:24.568Z,44.76
2022-08-25T14:07:22.818Z,45.16
2022-08-25T14:08:33.108Z,44.67
2022-08-25T14:09:39.655Z,45.39
2022-08-25T14:10:45.036Z,45.22
2022-08-25T14:11:46.519Z,45.57
2022-08-25T14:12:47.688Z,44.91
2022-08-25T14:13:45.402Z,44.53
2022-08-25T14:14:42.170Z,44.86
2022-08-25T14:15:40.870Z,44.75
2022-08-25T14:16:54.221Z,44.40
2022-08-25T14:18:09.179Z,43.49
2022-08-25T14:19:06.162Z,43.25
2022-08-25T14:20:06.198Z,43.98
2022-08-25T14:21:10.746Z,44.54
2022-08-25T14:22:07.835Z,44.41
2022-08-25T14:23:18.751Z,44.18
2022-08-25T14:24:17.933Z,45.08
2022-08-25T14:25:19.425Z,44.59
2022-08-25T14:26:16.101Z,44.73
2022-08-25T14:27:13.131Z,45.20
2022-08-25T14:28:14.304Z,44.71
2022-08-25T14:29:11.582Z,45.63
2022-08-25T14:30:08.864Z,45.17
2022-08-25T14:31:13.739Z,45.60
2022-08-25T14:32:13.589Z,45.61
2022-08-25T14:33:11.827Z,45.20
2022-08-25T14:34:15.357Z,45.84
2022-08-25T14:35:12.203Z,45.11
2022-08-25T14:36:14.263Z,45.54
2022-08-25T14:37:20.198Z,45.60
2022-08-25T14:38:23.370Z,45.81
2022-08-25T14:39:20.268Z,47.01
2022-08-25T14:40:19.979Z,46.52
2022-08-25T14:41:16.962Z,45.73
2022-08-25T14:42:14.200Z,46.36
2022-08-25T14:43:11.009Z,47.09
2022-08-25T14:44:09.614Z,46.85
2022-08-25T14:45:06.967Z,46.17
2022-08-25T14:46:10.640Z,46.44
2022-08-25T14:47:12.339Z,46.64
2022-08-25T14:48:11.749Z,47.24
2022-08-25T14:49:12.317Z,46.54
2022-08-25T14:50:11.148Z,47.02
2022-08-25T14:51:08.374Z,47.46
2022-08-25T14:52:30.437Z,47.24
2022-08-25T14:53:28.687Z,46.60
2022-08-25T14:54:27.425Z,46.78
2022-08-25T14:55:32.247Z,46.61
2022-08-25T14:56:30.336Z,46.58
2022-08-25T14:57:28.501Z,46.26
2022-08-25T14:58:25.959Z,46.82
2022-08-25T14:59:23.480Z,46.10
2022-08-25T15:00:20.723Z,45.45
2022-08-25T15:01:28.353Z,45.24
2022-08-25T15:02:29.361Z,46.09
2022-08-25T15:03:37.721Z,44.19
2022-08-25T15:04:36.635Z,44.55
2022-08-25T15:05:34.599Z,45.35
2022-08-25T15:06:31.600Z,45.40
2022-08-25T15:07:49.728Z,45.74
2022-08-25T15:09:05.025Z,46.57
2022-08-25T15:10:02.315Z,46.73
2022-08-25T15:11:00.134Z,46.80
2022-08-25T15:11:58.145Z,47.32
2022-08-25T15:12:54.924Z,46.51
2022-08-25T15:13:51.750Z,47.68
2022-08-25T15:14:48.668Z,45.89
2022-08-25T15:15:58.126Z,45.04
2022-08-25T15:16:56.978Z,44.43
2022-08-25T15:17:55.326Z,45.11
2022-08-25T15:18:56.532Z,45.21
2022-08-25T15:19:53.648Z,45.15
2022-08-25T15:20:50.405Z,44.23
2022-08-25T15:21:48.154Z,45.38
2022-08-25T15:22:45.572Z,45.66
2022-08-25T15:23:44.510Z,45.48
2022-08-25T15:24:42.109Z,45.29
2022-08-25T15:25:41.743Z,45.40
2022-08-25T15:27:56.356Z,45.15
2022-08-25T15:28:53.257Z,45.92
2022-08-25T15:29:50.509Z,45.99
2022-08-25T15:30:47.217Z,45.49
2022-08-25T15:31:44.546Z,45.24
2022-08-25T15:32:41.972Z,45.46
2022-08-25T15:33:39.607Z,45.31
2022-08-25T15:34:37.495Z,44.66
2022-08-25T15:35:35.131Z,45.07
2022-08-25T15:36:33.335Z,45.27
2022-08-25T15:37:31.257Z,45.33
2022-08-25T15:38:28.005Z,43.40
2022-08-25T15:39:24.730Z,43.23
2022-08-25T15:40:21.974Z,43.55
2022-08-25T15:41:19.168Z,44.45
2022-08-25T15:42:16.729Z,44.14
2022-08-25T15:43:13.317Z,44.00
2022-08-25T15:44:11.539Z,43.90
2022-08-25T15:45:10.250Z,44.62
2022-08-25T15:46:07.390Z,45.99
2022-08-25T15:47:04.190Z,44.91
2022-08-25T15:48:01.504Z,44.94
2022-08-25T15:49:00.312Z,44.35
2022-08-25T15:50:08.111Z,43.15
2022-08-25T15:51:05.464Z,42.41
2022-08-25T15:52:02.479Z,43.18
2022-08-25T15:52:59.207Z,43.65
2022-08-25T15:53:56.423Z,43.98
2022-08-25T15:54:54.736Z,45.12
2022-08-25T15:55:52.398Z,45.15
2022-08-25T15:56:51.726Z,45.26
2022-08-25T15:57:49.609Z,44.65
2022-08-25T15:58:49.834Z,43.55
2022-08-25T15:59:46.714Z,44.46
2022-08-25T16:00:51.221Z,45.76
2022-08-25T16:01:53.648Z,45.87
2022-08-25T16:02:50.889Z,45.61
2022-08-25T16:03:48.312Z,45.96
2022-08-25T16:04:46.320Z,46.11
2022-08-25T16:05:48.134Z,46.54
2022-08-25T16:06:45.241Z,46.29
2022-08-25T16:07:42.134Z,47.07
2022-08-25T16:08:39.291Z,45.88
2022-08-25T16:09:39.263Z,48.44
2022-08-25T16:10:37.524Z,47.39
2022-08-25T16:11:35.495Z,46.46
2022-08-25T16:12:35.570Z,46.94
2022-08-25T16:13:33.086Z,46.93
2022-08-25T16:14:29.791Z,49.02
2022-08-25T16:15:28.773Z,48.21
2022-08-25T16:16:29.336Z,49.05
2022-08-25T16:17:26.071Z,48.43
2022-08-25T16:18:23.991Z,50.24
2022-08-25T16:19:20.610Z,49.23
2022-08-25T16:20:19.613Z,48.35
2022-08-25T16:21:22.981Z,49.63
2022-08-25T16:22:22.346Z,51.14
2022-08-25T16:23:19.857Z,49.98
2022-08-25T16:24:16.532Z,49.64
2022-08-25T16:25:14.588Z,50.06
2022-08-25T16:26:12.962Z,49.96
2022-08-25T16:27:12.106Z,50.59
2022-08-25T16:28:11.209Z,50.44
2022-08-25T16:29:09.339Z,50.80
2022-08-25T16:30:14.973Z,50.89
2022-08-25T16:31:16.738Z,50.41
2022-08-25T16:32:14.684Z,50.63
2022-08-25T16:33:13.298Z,50.84
2022-08-25T16:34:13.779Z,50.52
2022-08-25T16:35:11.344Z,50.44
2022-08-25T16:36:20.699Z,50.38
2022-08-25T16:37:18.344Z,50.43
2022-08-25T16:38:14.989Z,50.82
2022-08-25T16:39:12.534Z,51.38
2022-08-25T16:40:13.568Z,51.83
2022-08-25T16:41:18.267Z,51.77
2022-08-25T16:42:15.321Z,51.15
2022-08-25T16:43:12.488Z,51.00
2022-08-25T16:44:11.159Z,50.73
2022-08-25T16:45:08.275Z,51.43
2022-08-25T16:46:08.345Z,50.84
2022-08-25T16:47:05.089Z,51.29
2022-08-25T16:48:06.235Z,51.49
2022-08-25T16:49:05.957Z,51.30
2022-08-25T16:50:03.593Z,51.99
2022-08-25T16:51:00.743Z,52.11
2022-08-25T16:51:58.021Z,51.03
2022-08-25T16:53:13.419Z,51.08
2022-08-25T16:54:29.627Z,51.46
2022-08-25T16:55:28.572Z,51.61
2022-08-25T16:56:37.662Z,51.86
2022-08-25T16:57:34.345Z,52.19
2022-08-25T16:58:33.169Z,52.04
2022-08-25T16:59:29.922Z,51.52
2022-08-25T17:00:30.997Z,52.40
2022-08-25T17:01:30.180Z,53.98
2022-08-25T17:02:26.933Z,55.36
2022-08-25T17:03:23.591Z,55.84
2022-08-25T17:04:21.394Z,55.55
2022-08-25T17:05:29.855Z,56.68
2022-08-25T17:06:28.666Z,57.53
2022-08-25T17:07:25.313Z,55.81
2022-08-25T17:08:31.048Z,53.50
2022-08-25T17:09:27.853Z,55.67
2022-08-25T17:10:26.063Z,55.69
2022-08-25T17:11:30.205Z,55.84
2022-08-25T17:12:28.048Z,55.31
2022-08-25T17:13:24.791Z,56.81
2022-08-25T17:14:22.353Z,57.20
2022-08-25T17:15:23.811Z,58.23
2022-08-25T17:16:22.743Z,58.23
2022-08-25T17:17:19.945Z,58.91
2022-08-25T17:18:16.586Z,57.69
2022-08-25T17:19:15.049Z,58.17
2022-08-25T17:20:11.760Z,59.79
2022-08-25T17:21:19.489Z,59.84
2022-08-25T17:22:22.650Z,57.86
2022-08-25T17:23:21.123Z,54.17
2022-08-25T17:24:18.252Z,56.86
2022-08-25T17:25:14.977Z,57.65
2022-08-25T17:26:14.822Z,58.20
2022-08-25T17:27:12.989Z,58.27
2022-08-25T17:28:12.076Z,58.13
2022-08-25T17:29:09.581Z,57.79
2022-08-25T17:30:06.970Z,57.68
2022-08-25T17:31:03.960Z,60.04
2022-08-25T17:32:04.931Z,59.12
2022-08-25T17:33:03.149Z,61.40
2022-08-25T17:33:59.817Z,58.50
2022-08-25T17:34:56.475Z,57.26
2022-08-25T17:35:55.820Z,57.43
2022-08-25T17:36:54.530Z,58.50
2022-08-25T17:37:51.307Z,58.75
2022-08-25T17:38:50.222Z,58.03
2022-08-25T17:39:46.933Z,60.69
2022-08-25T17:40:48.194Z,60.71
2022-08-25T17:41:45.775Z,61.47
2022-08-25T17:42:42.406Z,60.81
2022-08-25T17:43:43.415Z,61.65
2022-08-25T17:44:40.527Z,61.59
2022-08-25T17:45:39.100Z,62.52
2022-08-25T17:46:35.864Z,61.65
2022-08-25T17:47:33.274Z,62.89
2022-08-25T17:48:30.737Z,62.48
2022-08-25T17:49:29.809Z,61.72
2022-08-25T17:50:27.344Z,61.11
2022-08-25T17:51:24.922Z,60.00
2022-08-25T17:52:25.647Z,60.17
2022-08-25T17:53:23.175Z,59.12
2022-08-25T17:54:22.586Z,57.35
2022-08-25T17:55:24.346Z,57.45
2022-08-25T17:56:23.131Z,59.13
2022-08-25T17:57:19.953Z,58.97
2022-08-25T17:58:18.486Z,58.79
2022-08-25T17:59:16.502Z,58.12
2022-08-25T18:00:15.720Z,58.00
2022-08-25T18:01:22.652Z,57.54
2022-08-25T18:02:19.448Z,57.42
2022-08-25T18:03:16.206Z,57.33
2022-08-25T18:04:17.597Z,56.39
2022-08-25T18:05:17.274Z,56.73
2022-08-25T18:06:15.205Z,57.10
2022-08-25T18:07:14.145Z,57.29
2022-08-25T18:08:12.318Z,56.93
2022-08-25T18:09:10.983Z,56.74
2022-08-25T18:10:13.818Z,56.70
2022-08-25T18:11:12.011Z,57.15
2022-08-25T18:12:11.332Z,57.07
2022-08-25T18:13:08.812Z,57.29
2022-08-25T18:14:05.732Z,57.34
2022-08-25T18:15:03.028Z,56.90
2022-08-25T18:16:00.142Z,56.13
2022-08-25T18:16:57.614Z,56.81
2022-08-25T18:17:57.053Z,56.25
2022-08-25T18:18:55.297Z,57.00
2022-08-25T18:19:54.140Z,56.49
2022-08-25T18:20:51.090Z,56.81
2022-08-25T18:21:49.368Z,56.09
2022-08-25T18:22:48.653Z,56.53
2022-08-25T18:23:45.748Z,56.76
2022-08-25T18:24:44.453Z,56.58
2022-08-25T18:25:42.020Z,56.75
2022-08-25T18:26:39.955Z,56.82
2022-08-25T18:27:37.012Z,56.78
2022-08-25T18:28:34.807Z,56.61
2022-08-25T18:29:32.036Z,56.57
2022-08-25T18:30:28.684Z,56.73
2022-08-25T18:31:25.842Z,56.39
2022-08-25T18:32:22.671Z,55.84
2022-08-25T18:33:22.898Z,56.14
2022-08-25T18:34:19.629Z,56.25
2022-08-25T18:35:16.913Z,56.62
2022-08-25T18:36:20.486Z,56.04
2022-08-25T18:37:36.605Z,55.75
2022-08-25T18:38:51.526Z,56.15
2022-08-25T18:40:13.713Z,56.67
2022-08-25T18:41:11.664Z,56.36
2022-08-25T18:42:08.740Z,56.09
2022-08-25T18:43:08.398Z,56.32
2022-08-25T18:44:06.565Z,56.59
2022-08-25T18:45:06.587Z,57.10
2022-08-25T18:46:06.934Z,56.31
2022-08-25T18:47:07.865Z,56.71
2022-08-25T18:48:05.152Z,56.54
2022-08-25T18:49:03.682Z,56.99
2022-08-25T18:50:04.501Z,57.04
2022-08-25T18:51:02.514Z,57.59
2022-08-25T18:51:59.158Z,56.81
2022-08-25T18:52:57.323Z,57.23
2022-08-25T18:53:59.111Z,57.30
2022-08-25T18:54:58.322Z,57.06
2022-08-25T18:55:55.279Z,57.07
2022-08-25T18:56:53.297Z,57.15
2022-08-25T18:57:51.462Z,59.39
2022-08-25T18:58:49.889Z,58.92
2022-08-25T18:59:48.365Z,57.70
2022-08-25T19:00:45.815Z,59.08
2022-08-25T19:01:44.649Z,57.82
2022-08-25T19:03:00.073Z,56.70
2022-08-25T19:03:58.293Z,57.39
2022-08-25T19:04:56.433Z,58.97
2022-08-25T19:05:57.454Z,57.79
2022-08-25T19:06:54.520Z,56.98
2022-08-25T19:07:52.461Z,57.05
2022-08-25T19:08:49.159Z,57.04
2022-08-25T19:09:45.992Z,56.62
2022-08-25T19:10:45.835Z,57.66
2022-08-25T19:11:43.232Z,57.75
2022-08-25T19:12:41.598Z,59.00
2022-08-25T19:13:41.123Z,59.11
2022-08-25T19:14:38.519Z,58.43
2022-08-25T19:15:37.811Z,61.20
2022-08-25T19:16:38.381Z,58.59
2022-08-25T19:17:37.355Z,59.15
2022-08-25T19:18:34.620Z,58.98
2022-08-25T19:19:32.047Z,60.92
2022-08-25T19:20:31.481Z,59.26
2022-08-25T19:21:28.454Z,60.17
2022-08-25T19:22:40.696Z,60.94
2022-08-25T19:23:39.016Z,61.55
2022-08-25T19:24:36.362Z,61.82
2022-08-25T19:25:34.716Z,61.32
2022-08-25T19:26:34.425Z,59.28
2022-08-25T19:27:32.200Z,61.23
2022-08-25T19:28:29.581Z,58.55
2022-08-25T19:29:26.612Z,58.84
2022-08-25T19:30:29.557Z,59.96
2022-08-25T19:31:28.148Z,59.56
2022-08-25T19:32:30.409Z,59.52
2022-08-25T19:33:42.812Z,56.94
2022-08-25T19:34:44.099Z,56.35
2022-08-25T19:35:45.356Z,57.06
2022-08-25T19:36:43.030Z,57.36
2022-08-25T19:37:39.991Z,56.56
2022-08-25T19:38:37.300Z,56.66
2022-08-25T19:39:35.740Z,56.52
2022-08-25T19:40:37.843Z,56.94
2022-08-25T19:41:35.587Z,56.91
2022-08-25T19:42:38.142Z,57.26
2022-08-25T19:43:35.176Z,57.29
2022-08-25T19:44:32.516Z,57.25
2022-08-25T19:45:32.213Z,57.40
2022-08-25T19:46:35.770Z,57.37
2022-08-25T19:47:32.781Z,57.84
2022-08-25T19:48:29.503Z,57.18
2022-08-25T19:49:31.633Z,57.99
2022-08-25T19:50:30.053Z,57.44
2022-08-25T19:51:26.884Z,57.45
2022-08-25T19:52:24.989Z,59.31
2022-08-25T19:53:23.578Z,57.62
2022-08-25T19:54:25.223Z,58.16
2022-08-25T19:55:22.143Z,56.22
2022-08-25T19:56:19.415Z,57.22
2022-08-25T19:57:28.479Z,57.50
2022-08-25T19:58:32.965Z,58.56
2022-08-25T19:59:34.433Z,59.96
2022-08-25T20:00:40.339Z,60.17
2022-08-25T20:01:37.240Z,61.00
2022-08-25T20:02:37.213Z,61.30
2022-08-25T20:03:35.158Z,60.05
2022-08-25T20:04:32.770Z,63.29
2022-08-25T20:05:30.111Z,63.21
2022-08-25T20:06:27.718Z,63.11
2022-08-25T20:07:27.988Z,64.04
2022-08-25T20:08:29.743Z,62.81
2022-08-25T20:09:38.951Z,63.42
2022-08-25T20:10:41.930Z,63.67
2022-08-25T20:11:40.484Z,64.26
2022-08-25T20:12:37.572Z,62.96
2022-08-25T20:13:35.088Z,65.12
2022-08-25T20:14:34.024Z,64.07
2022-08-25T20:15:34.333Z,62.83
2022-08-25T20:16:33.910Z,62.50
2022-08-25T20:17:31.316Z,64.63
2022-08-25T20:18:28.410Z,64.55
2022-08-25T20:19:25.338Z,64.65
2022-08-25T20:20:22.479Z,64.84
2022-08-25T20:21:19.187Z,66.83
2022-08-25T20:22:17.431Z,66.34
2022-08-25T20:23:33.221Z,65.98
2022-08-25T20:24:49.462Z,67.16
2022-08-25T20:25:47.918Z,67.15
2022-08-25T20:26:47.148Z,66.74
2022-08-25T20:27:49.947Z,65.84
2022-08-25T20:28:46.639Z,65.69
2022-08-25T20:29:44.527Z,65.61
2022-08-25T20:30:44.152Z,66.67
2022-08-25T20:31:41.472Z,66.02
2022-08-25T20:32:40.811Z,65.72
2022-08-25T20:33:37.802Z,64.88
2022-08-25T20:34:36.964Z,65.43
2022-08-25T20:35:33.940Z,66.03
2022-08-25T20:36:31.474Z,66.14
2022-08-25T20:37:28.557Z,65.71
2022-08-25T20:38:27.032Z,65.34
2022-08-25T20:39:25.323Z,66.26
2022-08-25T20:40:25.854Z,66.30
2022-08-25T20:41:22.896Z,65.68
2022-08-25T20:42:19.927Z,65.13
2022-08-25T20:43:17.228Z,66.11
2022-08-25T20:44:14.067Z,66.42
2022-08-25T20:45:12.841Z,65.53
2022-08-25T20:46:09.808Z,65.64
2022-08-25T20:47:10.352Z,65.40
2022-08-25T20:48:07.520Z,66.65
2022-08-25T20:49:04.508Z,66.41
2022-08-25T20:50:06.423Z,66.58
2022-08-25T20:51:08.947Z,65.29
2022-08-25T20:52:06.773Z,63.83
2022-08-25T20:53:03.452Z,66.25
2022-08-25T20:54:00.261Z,65.23
2022-08-25T20:54:57.001Z,65.59
2022-08-25T20:55:53.747Z,65.54
2022-08-25T20:56:50.472Z,63.41
2022-08-25T20:57:47.791Z,64.76
2022-08-25T20:58:45.178Z,63.58
2022-08-25T20:59:41.762Z,64.54
2022-08-25T21:00:41.100Z,66.22
2022-08-25T21:01:37.991Z,65.25
2022-08-25T21:02:36.956Z,62.72
2022-08-25T21:03:33.592Z,65.98
2022-08-25T21:04:30.780Z,65.06
2022-08-25T21:05:27.788Z,66.97
2022-08-25T21:06:24.471Z,63.59
2022-08-25T21:07:23.893Z,64.79
2022-08-25T21:08:20.991Z,63.50
2022-08-25T21:09:23.035Z,62.39
2022-08-25T21:10:20.047Z,62.05
2022-08-25T21:11:18.157Z,61.53
2022-08-25T21:12:15.479Z,61.99
2022-08-25T21:13:12.448Z,61.97
2022-08-25T21:14:09.166Z,60.29
2022-08-25T21:15:07.406Z,60.18
2022-08-25T21:16:06.350Z,61.60